Time;durP1;ratioP1;P1;durP2;ratioP2;P2;SDS_P1;SDS_P2;PMS_P1;PMS_P2;Temp;Humidity;BMP_temperature;BMP_pressure;BME280_temperature;BME280_humidity;BME280_pressure;Samples;Min_cycle;Max_cycle;Signal;HPM_P1;HPM_P2
2022/09/04 00:02:23;;;;;;;0.00;0.00;;;;;;;;;;5051353;28;20425;-59
2022/09/04 00:04:55;;;;;;;0.00;0.00;;;;;;;;;;5049372;28;20024;-59
2022/09/04 00:07:39;;;;;;;0.00;0.00;;;;;;;;;;5051886;28;20013;-59
2022/09/04 00:10:17;;;;;;;0.00;0.00;;;;;;;;;;5051323;28;20052;-60
2022/09/04 00:12:49;;;;;;;0.00;0.00;;;;;;;;;;5050009;28;20021;-59
2022/09/04 00:15:23;;;;;;;0.00;0.00;;;;;;;;;;5051325;28;20466;-60
2022/09/04 00:18:15;;;;;;;0.00;0.00;;;;;;;;;;5050935;28;20025;-59
2022/09/04 00:20:44;;;;;;;0.00;0.00;;;;;;;;;;5049462;28;20033;-59
2022/09/04 00:23:09;;;;;;;;;;;;;;;;;;5051602;28;20032;-59
2022/09/04 00:25:44;;;;;;;0.00;0.00;;;;;;;;;;5051272;28;19912;-59
2022/09/04 00:28:18;;;;;;;0.00;0.00;;;;;;;;;;5051034;28;20489;-59
2022/09/04 00:30:52;;;;;;;0.00;0.00;;;;;;;;;;5050563;28;20099;-59
2022/09/04 00:33:22;;;;;;;0.00;0.00;;;;;;;;;;5050169;28;20066;-59
2022/09/04 00:36:08;;;;;;;0.00;0.00;;;;;;;;;;5049131;28;20029;-60
2022/09/04 00:38:39;;;;;;;0.00;0.00;;;;;;;;;;5049246;28;20127;-60
2022/09/04 00:41:07;;;;;;;0.00;0.00;;;;;;;;;;5050254;28;20025;-60
2022/09/04 00:43:51;;;;;;;0.00;0.00;;;;;;;;;;5050451;28;20067;-59
2022/09/04 00:46:36;;;;;;;0.00;0.00;;;;;;;;;;5050425;28;20021;-60
2022/09/04 00:49:19;;;;;;;0.00;0.00;;;;;;;;;;5049953;28;20409;-59
2022/09/04 00:52:03;;;;;;;0.00;0.00;;;;;;;;;;5049155;28;20079;-60
2022/09/04 00:54:37;;;;;;;0.00;0.00;;;;;;;;;;5050418;28;20021;-59
2022/09/04 00:57:18;;;;;;;0.00;0.00;;;;;;;;;;5049597;28;20064;-60
2022/09/04 00:59:43;;;;;;;0.00;0.00;;;;;;;;;;5050340;28;20035;-59
2022/09/04 01:02:19;;;;;;;0.00;0.00;;;;;;;;;;5048251;28;21737;-58
2022/09/04 01:04:56;;;;;;;0.00;0.00;;;;;;;;;;5049939;28;20290;-59
2022/09/04 01:07:39;;;;;;;0.00;0.00;;;;;;;;;;5050766;28;20024;-59
2022/09/04 01:10:05;;;;;;;0.00;0.00;;;;;;;;;;5049292;28;20032;-59
2022/09/04 01:12:45;;;;;;;0.00;0.00;;;;;;;;;;5052968;28;20470;-59
2022/09/04 01:15:33;;;;;;;0.00;0.00;;;;;;;;;;5051347;28;20025;-59
2022/09/04 01:18:17;;;;;;;0.00;0.00;;;;;;;;;;5049330;28;20027;-60
2022/09/04 01:21:01;;;;;;;0.00;0.00;;;;;;;;;;5049692;28;20108;-60
2022/09/04 01:23:40;;;;;;;0.00;0.00;;;;;;;;;;5049828;28;20044;-60
2022/09/04 01:26:21;;;;;;;0.00;0.00;;;;;;;;;;5049408;28;20144;-60
2022/09/04 01:28:49;;;;;;;0.00;0.00;;;;;;;;;;5049580;28;20029;-60
2022/09/04 01:31:35;;;;;;;0.00;0.00;;;;;;;;;;5048204;28;20024;-59
2022/09/04 01:34:12;;;;;;;0.00;0.00;;;;;;;;;;5048628;28;20032;-59
2022/09/04 01:36:37;;;;;;;0.00;0.00;;;;;;;;;;5049443;28;20251;-60
2022/09/04 01:39:03;;;;;;;0.00;0.00;;;;;;;;;;5049128;28;20078;-60
2022/09/04 01:41:32;;;;;;;0.00;0.00;;;;;;;;;;5049536;28;21129;-59
2022/09/04 01:43:57;;;;;;;0.00;0.00;;;;;;;;;;5048522;28;20044;-59
2022/09/04 01:46:22;;;;;;;0.00;0.00;;;;;;;;;;5049777;28;20509;-59
2022/09/04 01:49:01;;;;;;;0.00;0.00;;;;;;;;;;5048275;28;20028;-58
2022/09/04 01:51:53;;;;;;;0.00;0.00;;;;;;;;;;5049005;28;20274;-60
2022/09/04 01:54:37;;;;;;;0.00;0.00;;;;;;;;;;5049381;28;20025;-58
2022/09/04 01:57:06;;;;;;;0.00;0.00;;;;;;;;;;5048717;28;20110;-59
2022/09/04 01:59:36;;;;;;;0.00;0.00;;;;;;;;;;5048289;28;20064;-59
2022/09/04 02:02:12;;;;;;;0.00;0.00;;;;;;;;;;5048715;28;20040;-59
2022/09/04 02:05:00;;;;;;;0.00;0.00;;;;;;;;;;5048571;28;20025;-59
2022/09/04 02:07:44;;;;;;;0.00;0.00;;;;;;;;;;5049780;28;20017;-58
2022/09/04 02:10:21;;;;;;;0.00;0.00;;;;;;;;;;5049531;28;20486;-59
2022/09/04 02:12:52;;;;;;;0.00;0.00;;;;;;;;;;5049334;28;20492;-59
2022/09/04 02:15:30;;;;;;;0.00;0.00;;;;;;;;;;5049343;28;20139;-58
2022/09/04 02:18:14;;;;;;;0.00;0.00;;;;;;;;;;5048917;28;20124;-59
2022/09/04 02:20:45;;;;;;;0.00;0.00;;;;;;;;;;5049237;28;20430;-60
2022/09/04 02:23:13;;;;;;;0.00;0.00;;;;;;;;;;5048743;28;20358;-58
2022/09/04 02:25:57;;;;;;;0.00;0.00;;;;;;;;;;5048797;28;20024;-60
2022/09/04 02:28:41;;;;;;;0.00;0.00;;;;;;;;;;5053867;28;20033;-59
2022/09/04 02:31:25;;;;;;;0.00;0.00;;;;;;;;;;5050291;28;20419;-56
2022/09/04 02:33:55;;;;;;;0.00;0.00;;;;;;;;;;5050260;28;20485;-56
2022/09/04 02:36:35;;;;;;;0.00;0.00;;;;;;;;;;5051422;28;20043;-57
2022/09/04 02:39:07;;;;;;;0.00;0.00;;;;;;;;;;5049955;28;20180;-58
2022/09/04 02:41:40;;;;;;;0.00;0.00;;;;;;;;;;5049939;28;20077;-57
2022/09/04 02:44:14;;;;;;;0.00;0.00;;;;;;;;;;5049119;28;20024;-58
2022/09/04 02:47:03;;;;;;;0.00;0.00;;;;;;;;;;5049704;28;20016;-58
2022/09/04 02:49:35;;;;;;;0.00;0.00;;;;;;;;;;5051211;28;20515;-58
2022/09/04 02:52:19;;;;;;;0.00;0.00;;;;;;;;;;5049016;28;20140;-58
2022/09/04 02:55:07;;;;;;;0.00;0.00;;;;;;;;;;5048798;28;20024;-60
2022/09/04 02:57:53;;;;;;;0.85;0.85;;;;;;;;;;5035950;28;20061;-59
2022/09/04 03:00:19;;;;;;;0.00;0.00;;;;;;;;;;5047659;28;20025;-57
2022/09/04 03:02:54;;;;;;;0.22;0.15;;;;;;;;;;5052256;28;20083;-58
2022/09/04 03:05:21;;;;;;;0.30;0.30;;;;;;;;;;5051931;28;20108;-59
2022/09/04 03:07:53;;;;;;;0.00;0.00;;;;;;;;;;5053948;28;20028;-58
2022/09/04 03:10:19;;;;;;;0.00;0.00;;;;;;;;;;5056874;28;20054;-58
2022/09/04 03:12:54;;;;;;;0.32;0.32;;;;;;;;;;5054578;28;20049;-58
2022/09/04 03:15:35;;;;;;;0.00;0.00;;;;;;;;;;5055856;28;20020;-58
2022/09/04 03:18:00;;;;;;;0.00;0.00;;;;;;;;;;5052254;28;20111;-59
2022/09/04 03:20:27;;;;;;;0.00;0.00;;;;;;;;;;5052491;28;20883;-59
2022/09/04 03:22:55;;;;;;;0.00;0.00;;;;;;;;;;5051735;28;20529;-58
2022/09/04 03:25:40;;;;;;;0.00;0.00;;;;;;;;;;5052324;28;20107;-58
2022/09/04 03:28:07;;;;;;;0.00;0.00;;;;;;;;;;5050981;28;20043;-59
2022/09/04 03:30:34;;;;;;;0.00;0.00;;;;;;;;;;5052039;28;20020;-59
2022/09/04 03:33:01;;;;;;;0.10;0.10;;;;;;;;;;5051590;28;20013;-60
2022/09/04 03:35:53;;;;;;;0.00;0.00;;;;;;;;;;5052140;28;20021;-60
2022/09/04 03:38:37;;;;;;;0.00;0.00;;;;;;;;;;5050944;28;20033;-60
2022/09/04 03:41:03;;;;;;;0.00;0.00;;;;;;;;;;5051129;28;20055;-59
2022/09/04 03:43:37;;;;;;;1.00;0.08;;;;;;;;;;5051863;28;20029;-59
2022/09/04 03:46:08;;;;;;;0.00;0.00;;;;;;;;;;5051470;28;20541;-59
2022/09/04 03:48:52;;;;;;;0.00;0.00;;;;;;;;;;5052158;28;20025;-58
2022/09/04 03:51:25;;;;;;;0.00;0.00;;;;;;;;;;5051890;28;20028;-56
2022/09/04 03:54:00;;;;;;;0.00;0.00;;;;;;;;;;5051878;28;20052;-58
2022/09/04 03:56:45;;;;;;;0.00;0.00;;;;;;;;;;5050147;28;20472;-58
2022/09/04 03:59:28;;;;;;;0.00;0.00;;;;;;;;;;5050047;28;20074;-59
2022/09/04 04:01:56;;;;;;;0.35;0.35;;;;;;;;;;5051425;28;20358;-57
2022/09/04 04:04:41;;;;;;;0.00;0.00;;;;;;;;;;5051503;28;20021;-57
2022/09/04 04:07:12;;;;;;;0.00;0.00;;;;;;;;;;5049995;28;20017;-57
2022/09/04 04:09:46;;;;;;;0.00;0.00;;;;;;;;;;5051552;28;20025;-57
2022/09/04 04:12:11;;;;;;;0.00;0.00;;;;;;;;;;5050811;28;20029;-56
2022/09/04 04:14:56;;;;;;;0.00;0.00;;;;;;;;;;5051333;28;20134;-57
2022/09/04 04:17:21;;;;;;;0.00;0.00;;;;;;;;;;5051352;28;20017;-57
2022/09/04 04:20:05;;;;;;;0.00;0.00;;;;;;;;;;5051323;28;20108;-57
2022/09/04 04:22:39;;;;;;;0.00;0.00;;;;;;;;;;5051554;28;20017;-57
2022/09/04 04:25:24;;;;;;;0.00;0.00;;;;;;;;;;5049481;28;20017;-58
2022/09/04 04:28:06;;;;;;;0.00;0.00;;;;;;;;;;5050286;28;20039;-55
2022/09/04 04:30:42;;;;;;;0.00;0.00;;;;;;;;;;5050976;28;20511;-57
2022/09/04 04:33:13;;;;;;;0.00;0.00;;;;;;;;;;5050416;28;20040;-58
2022/09/04 04:36:01;;;;;;;0.00;0.00;;;;;;;;;;5051157;28;20033;-57
2022/09/04 04:38:46;;;;;;;0.00;0.00;;;;;;;;;;5047662;28;20036;-56
2022/09/04 04:41:20;;;;;;;0.00;0.00;;;;;;;;;;5050519;28;20029;-56
2022/09/04 04:43:54;;;;;;;0.00;0.00;;;;;;;;;;5050693;28;20021;-57
2022/09/04 04:46:25;;;;;;;0.00;0.00;;;;;;;;;;5051146;28;20052;-59
2022/09/04 04:49:08;;;;;;;0.17;0.17;;;;;;;;;;5050762;28;20017;-58
2022/09/04 04:51:41;;;;;;;0.00;0.00;;;;;;;;;;5050828;28;20454;-59
2022/09/04 04:54:33;;;;;;;0.00;0.00;;;;;;;;;;5049163;28;20124;-60
2022/09/04 04:57:03;;;;;;;0.00;0.00;;;;;;;;;;5048951;28;20136;-61
2022/09/04 04:59:44;;;;;;;0.00;0.00;;;;;;;;;;5050304;28;20021;-59
2022/09/04 05:02:23;;;;;;;0.00;0.00;;;;;;;;;;5049085;28;20028;-58
2022/09/04 05:05:01;;;;;;;0.08;0.08;;;;;;;;;;5050780;28;20032;-59
2022/09/04 05:07:36;;;;;;;0.00;0.00;;;;;;;;;;5050621;28;20461;-59
2022/09/04 05:10:16;;;;;;;0.00;0.00;;;;;;;;;;5050237;28;20342;-60
2022/09/04 05:12:53;;;;;;;0.00;0.00;;;;;;;;;;5049747;28;20143;-59
2022/09/04 05:15:33;;;;;;;0.60;0.60;;;;;;;;;;5049819;28;20029;-57
2022/09/04 05:17:59;;;;;;;0.00;0.00;;;;;;;;;;5050318;28;20024;-58
2022/09/04 05:20:33;;;;;;;0.00;0.00;;;;;;;;;;5050949;28;20021;-58
2022/09/04 05:23:03;;;;;;;0.00;0.00;;;;;;;;;;5049454;28;20025;-58
2022/09/04 05:25:37;;;;;;;0.00;0.00;;;;;;;;;;5049561;28;20029;-60
2022/09/04 05:28:05;;;;;;;0.00;0.00;;;;;;;;;;5049681;28;20027;-59
2022/09/04 05:30:46;;;;;;;0.00;0.00;;;;;;;;;;5049903;28;20039;-59
2022/09/04 05:33:23;;;;;;;0.00;0.00;;;;;;;;;;5049406;28;20154;-58
2022/09/04 05:35:54;;;;;;;0.00;0.00;;;;;;;;;;5049910;28;20043;-58
2022/09/04 05:38:19;;;;;;;4.75;0.75;;;;;;;;;;5049486;28;20033;-60
2022/09/04 05:40:44;;;;;;;0.00;0.00;;;;;;;;;;5049721;28;20044;-58
2022/09/04 05:43:09;;;;;;;0.10;0.10;;;;;;;;;;5051556;28;20502;-59
2022/09/04 05:45:43;;;;;;;0.00;0.00;;;;;;;;;;5051778;28;20263;-59
2022/09/04 05:48:18;;;;;;;0.00;0.00;;;;;;;;;;5050968;28;20260;-59
2022/09/04 05:51:03;;;;;;;0.00;0.00;;;;;;;;;;5054430;28;20033;-59
2022/09/04 05:53:39;;;;;;;0.00;0.00;;;;;;;;;;5053566;28;20039;-58
2022/09/04 05:56:20;;;;;;;0.00;0.00;;;;;;;;;;5055835;28;20056;-59
2022/09/04 05:59:01;;;;;;;0.00;0.00;;;;;;;;;;5052410;28;20076;-59
2022/09/04 06:01:45;;;;;;;0.00;0.00;;;;;;;;;;5048776;28;20052;-59
2022/09/04 06:04:25;;;;;;;0.10;0.10;;;;;;;;;;5051116;28;20492;-58
2022/09/04 06:06:53;;;;;;;0.00;0.00;;;;;;;;;;5049721;28;20013;-58
2022/09/04 06:09:36;;;;;;;0.00;0.00;;;;;;;;;;5048957;28;20035;-58
2022/09/04 06:12:01;;;;;;;0.70;0.70;;;;;;;;;;5048873;28;20032;-58
2022/09/04 06:14:33;;;;;;;0.00;0.00;;;;;;;;;;5047485;28;20031;-58
2022/09/04 06:17:13;;;;;;;0.00;0.00;;;;;;;;;;5048516;28;20078;-58
2022/09/04 06:19:54;;;;;;;2.22;2.08;;;;;;;;;;5047463;28;20108;-58
2022/09/04 06:22:38;;;;;;;0.10;0.10;;;;;;;;;;5047866;28;20412;-58
2022/09/04 06:25:23;;;;;;;0.00;0.00;;;;;;;;;;5048008;28;20091;-58
2022/09/04 06:28:06;;;;;;;0.00;0.00;;;;;;;;;;5047811;28;20028;-58
2022/09/04 06:30:54;;;;;;;0.00;0.00;;;;;;;;;;5048734;28;20432;-58
2022/09/04 06:33:39;;;;;;;1.25;1.25;;;;;;;;;;5046442;28;20537;-59
2022/09/04 06:36:23;;;;;;;0.00;0.00;;;;;;;;;;5048025;28;20446;-60
2022/09/04 06:39:00;;;;;;;0.00;0.00;;;;;;;;;;5048586;28;20047;-61
2022/09/04 06:41:28;;;;;;;0.00;0.00;;;;;;;;;;5048620;28;20409;-60
2022/09/04 06:44:11;;;;;;;0.00;0.00;;;;;;;;;;5048004;28;20053;-58
2022/09/04 06:46:43;;;;;;;0.00;0.00;;;;;;;;;;5048612;28;20020;-57
2022/09/04 06:49:08;;;;;;;0.00;0.00;;;;;;;;;;5044182;28;20520;-60
2022/09/04 06:51:34;;;;;;;0.00;0.00;;;;;;;;;;5048322;28;20032;-60
2022/09/04 06:53:59;;;;;;;0.00;0.00;;;;;;;;;;5047218;28;20021;-60
2022/09/04 06:56:40;;;;;;;0.08;0.08;;;;;;;;;;5048214;28;20115;-60
2022/09/04 06:59:14;;;;;;;0.00;0.00;;;;;;;;;;5047680;28;20029;-59
2022/09/04 07:01:52;;;;;;;0.00;0.00;;;;;;;;;;5047690;28;20021;-59
2022/09/04 07:04:23;;;;;;;0.00;0.00;;;;;;;;;;5048069;28;20035;-58
2022/09/04 07:07:00;;;;;;;0.00;0.00;;;;;;;;;;5047739;28;20029;-59
2022/09/04 07:09:27;;;;;;;0.00;0.00;;;;;;;;;;5047880;28;20024;-58
2022/09/04 07:12:11;;;;;;;0.00;0.00;;;;;;;;;;5047269;28;20148;-62
2022/09/04 07:14:55;;;;;;;0.00;0.00;;;;;;;;;;5045152;28;20475;-60
2022/09/04 07:17:26;;;;;;;0.00;0.00;;;;;;;;;;5047401;28;20031;-60
2022/09/04 07:19:57;;;;;;;0.00;0.00;;;;;;;;;;5047787;28;20029;-59
2022/09/04 07:22:43;;;;;;;0.00;0.00;;;;;;;;;;5046489;28;20036;-60
2022/09/04 07:25:16;;;;;;;0.00;0.00;;;;;;;;;;5048340;28;20028;-60
2022/09/04 07:27:47;;;;;;;0.00;0.00;;;;;;;;;;5049439;28;20021;-60
2022/09/04 07:30:16;;;;;;;0.00;0.00;;;;;;;;;;5047190;28;20021;-59
2022/09/04 07:32:44;;;;;;;0.00;0.00;;;;;;;;;;5047926;28;20403;-59
2022/09/04 07:35:15;;;;;;;0.00;0.00;;;;;;;;;;5048807;28;20021;-60
2022/09/04 07:37:45;;;;;;;0.00;0.00;;;;;;;;;;5047806;28;20047;-58
2022/09/04 07:40:15;;;;;;;0.00;0.00;;;;;;;;;;5047722;28;20025;-60
2022/09/04 07:42:54;;;;;;;0.00;0.00;;;;;;;;;;5048601;28;20029;-59
2022/09/04 07:45:28;;;;;;;0.00;0.00;;;;;;;;;;5047599;28;20473;-59
2022/09/04 07:47:54;;;;;;;0.00;0.00;;;;;;;;;;5053388;28;20029;-59
2022/09/04 07:50:24;;;;;;;0.00;0.00;;;;;;;;;;5050502;28;20104;-58
2022/09/04 07:52:52;;;;;;;0.00;0.00;;;;;;;;;;5051674;28;20538;-59
2022/09/04 07:55:20;;;;;;;0.00;0.00;;;;;;;;;;5052813;28;20401;-60
2022/09/04 07:58:06;;;;;;;0.00;0.00;;;;;;;;;;5051144;28;20464;-60
2022/09/04 08:00:50;;;;;;;0.00;0.00;;;;;;;;;;5051262;28;20028;-58
2022/09/04 08:03:34;;;;;;;0.00;0.00;;;;;;;;;;5050723;28;20017;-59
2022/09/04 08:06:16;;;;;;;0.00;0.00;;;;;;;;;;5050084;28;20017;-58
2022/09/04 08:08:50;;;;;;;2.70;2.42;;;;;;;;;;5051540;28;20025;-58
2022/09/04 08:11:24;;;;;;;0.55;0.55;;;;;;;;;;5051567;28;20021;-59
2022/09/04 08:13:52;;;;;;;0.55;0.55;;;;;;;;;;5051034;28;20059;-59
2022/09/04 08:16:27;;;;;;;0.00;0.00;;;;;;;;;;5051013;28;20021;-59
2022/09/04 08:19:07;;;;;;;0.77;0.65;;;;;;;;;;5051290;28;20043;-58
2022/09/04 08:21:34;;;;;;;0.45;0.45;;;;;;;;;;5051641;28;20029;-59
2022/09/04 08:24:11;;;;;;;5.05;1.55;;;;;;;;;;5050752;28;20038;-60
2022/09/04 08:26:42;;;;;;;0.52;0.52;;;;;;;;;;5051543;28;20025;-59
2022/09/04 08:29:10;;;;;;;0.40;0.40;;;;;;;;;;5051541;28;20483;-59
2022/09/04 08:31:41;;;;;;;1.35;1.35;;;;;;;;;;5051260;28;20107;-58
2022/09/04 08:34:07;;;;;;;0.10;0.10;;;;;;;;;;5047101;28;20025;-58
2022/09/04 08:36:32;;;;;;;0.30;0.30;;;;;;;;;;5050806;28;20409;-58
2022/09/04 08:39:20;;;;;;;0.00;0.00;;;;;;;;;;5052732;28;20043;-59
2022/09/04 08:41:58;;;;;;;0.00;0.00;;;;;;;;;;5050441;28;20416;-57
2022/09/04 08:44:42;;;;;;;0.00;0.00;;;;;;;;;;5048569;28;20051;-58
2022/09/04 08:47:26;;;;;;;0.25;0.10;;;;;;;;;;5049566;28;20556;-57
2022/09/04 08:50:10;;;;;;;0.00;0.00;;;;;;;;;;5049944;28;20553;-58
2022/09/04 08:52:38;;;;;;;0.00;0.00;;;;;;;;;;5050488;28;20450;-57
2022/09/04 08:55:03;;;;;;;0.00;0.00;;;;;;;;;;5050156;28;20036;-58
2022/09/04 08:57:55;;;;;;;0.00;0.00;;;;;;;;;;5050355;28;20041;-58
2022/09/04 09:00:21;;;;;;;1.45;1.20;;;;;;;;;;5040418;28;20271;-58
2022/09/04 09:03:05;;;;;;;0.00;0.00;;;;;;;;;;5050001;28;20134;-57
2022/09/04 09:05:33;;;;;;;0.00;0.00;;;;;;;;;;5050112;28;20025;-58
2022/09/04 09:08:05;;;;;;;0.00;0.00;;;;;;;;;;5049548;28;20103;-58
2022/09/04 09:10:33;;;;;;;0.00;0.00;;;;;;;;;;5049590;28;20024;-57
2022/09/04 09:13:01;;;;;;;1.33;0.40;;;;;;;;;;5047930;28;20025;-56
2022/09/04 09:15:30;;;;;;;0.00;0.00;;;;;;;;;;5049302;28;20128;-56
2022/09/04 09:17:55;;;;;;;0.00;0.00;;;;;;;;;;5050324;28;20013;-56
2022/09/04 09:20:23;;;;;;;0.47;0.47;;;;;;;;;;5047894;28;20096;-58
2022/09/04 09:23:08;;;;;;;0.65;0.65;;;;;;;;;;5049462;28;20644;-58
2022/09/04 09:25:52;;;;;;;0.45;0.45;;;;;;;;;;5050062;28;20502;-57
2022/09/04 09:28:32;;;;;;;1.75;1.65;;;;;;;;;;5049262;28;20029;-59
2022/09/04 09:30:57;;;;;;;;;;;;;;;;;;5050213;28;20432;-58
2022/09/04 09:33:22;;;;;;;0.20;0.20;;;;;;;;;;5047620;28;19913;-57
2022/09/04 09:35:54;;;;;;;0.00;0.00;;;;;;;;;;5047526;28;20027;-58
2022/09/04 09:38:29;;;;;;;1.20;0.43;;;;;;;;;;5047755;28;20036;-58
2022/09/04 09:41:12;;;;;;;0.00;0.00;;;;;;;;;;5047897;28;20192;-57
2022/09/04 09:43:56;;;;;;;0.00;0.00;;;;;;;;;;5049045;28;20370;-56
2022/09/04 09:46:39;;;;;;;0.00;0.00;;;;;;;;;;5047695;28;20024;-57
2022/09/04 09:49:20;;;;;;;0.00;0.00;;;;;;;;;;5047113;28;20031;-56
2022/09/04 09:51:57;;;;;;;0.00;0.00;;;;;;;;;;5042558;28;20020;-55
2022/09/04 09:54:38;;;;;;;0.20;0.10;;;;;;;;;;5044529;28;20668;-57
2022/09/04 09:57:06;;;;;;;0.00;0.00;;;;;;;;;;5047649;28;20558;-58
2022/09/04 10:00:01;;;;;;;0.00;0.00;;;;;;;;;;5048701;28;20030;-56
2022/09/04 10:02:45;;;;;;;0.10;0.10;;;;;;;;;;5046994;28;20021;-56
2022/09/04 10:05:17;;;;;;;0.15;0.15;;;;;;;;;;5046883;28;20021;-57
2022/09/04 10:07:52;;;;;;;0.00;0.00;;;;;;;;;;5044425;28;20031;-58
2022/09/04 10:10:36;;;;;;;1.90;0.20;;;;;;;;;;5047668;28;20044;-56
2022/09/04 10:13:07;;;;;;;0.00;0.00;;;;;;;;;;5047750;28;20761;-57
2022/09/04 10:16:05;;;;;;;6.00;5.75;;;;;;;;;;5049013;28;20024;-58
2022/09/04 10:18:49;;;;;;;0.05;0.05;;;;;;;;;;5036644;28;20067;-58
2022/09/04 10:21:32;;;;;;;0.00;0.00;;;;;;;;;;5047313;28;20028;-57
2022/09/04 10:24:05;;;;;;;1.10;0.52;;;;;;;;;;5048592;28;20021;-57
2022/09/04 10:26:34;;;;;;;0.00;0.00;;;;;;;;;;5048445;28;20017;-55
2022/09/04 10:29:13;;;;;;;1.35;1.35;;;;;;;;;;5048293;28;20024;-56
2022/09/04 10:31:45;;;;;;;0.08;0.08;;;;;;;;;;5049087;28;20043;-56
2022/09/04 10:34:22;;;;;;;0.90;0.90;;;;;;;;;;5048448;28;20021;-55
2022/09/04 10:37:06;;;;;;;0.00;0.00;;;;;;;;;;5047777;28;20053;-56
2022/09/04 10:42:34;;;;;;;0.00;0.00;;;;;;;;;;5048086;28;20055;-57
2022/09/04 10:45:11;;;;;;;0.52;0.30;;;;;;;;;;5046925;28;20565;-56
2022/09/04 10:47:39;;;;;;;0.30;0.30;;;;;;;;;;5047650;28;20401;-56
2022/09/04 10:50:17;;;;;;;1.55;0.88;;;;;;;;;;5045926;28;20067;-56
2022/09/04 10:52:50;;;;;;;0.10;0.10;;;;;;;;;;5047337;28;20039;-58
2022/09/04 10:55:31;;;;;;;0.00;0.00;;;;;;;;;;5046390;28;20336;-56
2022/09/04 10:58:07;;;;;;;0.00;0.00;;;;;;;;;;5045787;28;20056;-57
2022/09/04 11:00:39;;;;;;;0.00;0.00;;;;;;;;;;5046429;28;20068;-57
2022/09/04 11:03:07;;;;;;;1.55;0.60;;;;;;;;;;5046202;28;20032;-57
2022/09/04 11:05:39;;;;;;;0.00;0.00;;;;;;;;;;5046071;28;20090;-57
2022/09/04 11:08:16;;;;;;;0.00;0.00;;;;;;;;;;5045445;28;20025;-57
2022/09/04 11:10:44;;;;;;;0.00;0.00;;;;;;;;;;5048254;28;20021;-57
2022/09/04 11:13:21;;;;;;;0.00;0.00;;;;;;;;;;5047516;28;20730;-57
2022/09/04 11:16:08;;;;;;;0.28;0.28;;;;;;;;;;5048210;28;20021;-56
2022/09/04 11:18:44;;;;;;;0.00;0.00;;;;;;;;;;5047984;28;20024;-58
2022/09/04 11:21:21;;;;;;;0.00;0.00;;;;;;;;;;5046184;28;20083;-57
2022/09/04 11:23:47;;;;;;;0.00;0.00;;;;;;;;;;5050986;28;20021;-57
2022/09/04 11:26:13;;;;;;;0.00;0.00;;;;;;;;;;5051114;28;20018;-57
2022/09/04 11:28:57;;;;;;;0.00;0.00;;;;;;;;;;5050670;28;20033;-57
2022/09/04 11:31:42;;;;;;;1.55;1.45;;;;;;;;;;5051538;28;20564;-58
2022/09/04 11:34:31;;;;;;;0.00;0.00;;;;;;;;;;5051553;28;20029;-57
2022/09/04 11:37:06;;;;;;;0.00;0.00;;;;;;;;;;5051110;28;20021;-57
2022/09/04 11:39:49;;;;;;;0.00;0.00;;;;;;;;;;5051474;28;20069;-58
2022/09/04 11:42:19;;;;;;;0.00;0.00;;;;;;;;;;5050799;28;20027;-58
2022/09/04 11:44:45;;;;;;;;;;;;;;;;;;5051387;28;20017;-57
2022/09/04 11:47:15;;;;;;;1.10;1.10;;;;;;;;;;5051495;28;19909;-56
2022/09/04 11:49:41;;;;;;;0.28;0.20;;;;;;;;;;5051347;28;20013;-57
2022/09/04 11:52:15;;;;;;;1.50;1.13;;;;;;;;;;5051211;28;20082;-58
2022/09/04 11:54:54;;;;;;;0.00;0.00;;;;;;;;;;5051708;28;20351;-57
2022/09/04 11:57:42;;;;;;;0.00;0.00;;;;;;;;;;5049633;28;20080;-58
2022/09/04 12:00:10;;;;;;;0.00;0.00;;;;;;;;;;5049950;28;20033;-58
2022/09/04 12:02:45;;;;;;;0.15;0.15;;;;;;;;;;5050292;28;20123;-56
2022/09/04 12:05:42;;;;;;;1.75;1.20;;;;;;;;;;5049990;28;20028;-57
2022/09/04 12:08:07;;;;;;;0.00;0.00;;;;;;;;;;5050241;28;20145;-57
2022/09/04 12:10:51;;;;;;;0.00;0.00;;;;;;;;;;5051087;28;20059;-56
2022/09/04 12:13:19;;;;;;;0.00;0.00;;;;;;;;;;5051024;28;20043;-58
2022/09/04 12:15:53;;;;;;;0.00;0.00;;;;;;;;;;5050661;28;20067;-57
2022/09/04 12:18:19;;;;;;;0.00;0.00;;;;;;;;;;5049935;28;20546;-56
2022/09/04 12:21:05;;;;;;;0.00;0.00;;;;;;;;;;5050684;28;20067;-57
2022/09/04 12:23:30;;;;;;;0.00;0.00;;;;;;;;;;5051152;28;20021;-57
2022/09/04 12:26:05;;;;;;;0.00;0.00;;;;;;;;;;5050087;28;20542;-56
2022/09/04 12:28:38;;;;;;;0.00;0.00;;;;;;;;;;5052205;28;20017;-58
2022/09/04 12:31:16;;;;;;;0.00;0.00;;;;;;;;;;5053052;28;20017;-58
2022/09/04 12:33:57;;;;;;;0.45;0.45;;;;;;;;;;5051216;28;20025;-57
2022/09/04 12:36:22;;;;;;;0.00;0.00;;;;;;;;;;5051539;28;20094;-58
2022/09/04 12:39:03;;;;;;;0.00;0.00;;;;;;;;;;5053578;28;20057;-57
2022/09/04 12:41:37;;;;;;;0.17;0.10;;;;;;;;;;5050665;28;20279;-58
2022/09/04 12:44:02;;;;;;;0.95;0.95;;;;;;;;;;5051344;28;20696;-58
2022/09/04 12:46:34;;;;;;;0.00;0.00;;;;;;;;;;5051201;28;20028;-58
2022/09/04 12:49:26;;;;;;;0.00;0.00;;;;;;;;;;5051140;28;20017;-57
2022/09/04 12:52:10;;;;;;;0.00;0.00;;;;;;;;;;5051221;28;20056;-56
2022/09/04 12:54:39;;;;;;;0.15;0.15;;;;;;;;;;5050892;28;20017;-56
2022/09/04 12:57:07;;;;;;;;;;;;;;;;;;5050601;28;20124;-56
2022/09/04 12:59:44;;;;;;;0.00;0.00;;;;;;;;;;5051385;28;19919;-56
2022/09/04 13:02:09;;;;;;;0.00;0.00;;;;;;;;;;5049732;28;20428;-56
2022/09/04 13:04:34;;;;;;;0.00;0.00;;;;;;;;;;5051405;28;20013;-59
2022/09/04 13:07:10;;;;;;;0.00;0.00;;;;;;;;;;5051907;28;20291;-57
2022/09/04 13:09:38;;;;;;;0.00;0.00;;;;;;;;;;5050798;28;20322;-57
2022/09/04 13:12:03;;;;;;;0.00;0.00;;;;;;;;;;5053149;28;20033;-58
2022/09/04 13:14:47;;;;;;;0.00;0.00;;;;;;;;;;5053470;28;20027;-57
2022/09/04 13:17:22;;;;;;;0.00;0.00;;;;;;;;;;5049860;28;20017;-57
2022/09/04 13:19:59;;;;;;;0.00;0.00;;;;;;;;;;5049636;28;20028;-58
2022/09/04 13:22:41;;;;;;;0.00;0.00;;;;;;;;;;5049650;28;20107;-58
2022/09/04 13:25:46;;;;;;;0.00;0.00;;;;;;;;;;5049366;28;20390;-58
2022/09/04 13:28:36;;;;;;;0.00;0.00;;;;;;;;;;5025737;28;20013;-57
2022/09/04 13:31:20;;;;;;;0.00;0.00;;;;;;;;;;5026523;28;20063;-57
2022/09/04 13:34:03;;;;;;;0.00;0.00;;;;;;;;;;5043715;28;20524;-58
2022/09/04 13:36:48;;;;;;;0.25;0.00;;;;;;;;;;5049517;28;20029;-58
2022/09/04 13:39:20;;;;;;;1.67;1.65;;;;;;;;;;5048808;28;20036;-57
2022/09/04 13:41:51;;;;;;;0.28;0.28;;;;;;;;;;5049222;28;20045;-57
2022/09/04 13:44:20;;;;;;;0.00;0.00;;;;;;;;;;5049569;28;20446;-56
2022/09/04 13:46:51;;;;;;;0.17;0.17;;;;;;;;;;5049690;28;20048;-58
2022/09/04 13:49:21;;;;;;;0.00;0.00;;;;;;;;;;5049148;28;20378;-57
2022/09/04 13:51:50;;;;;;;0.00;0.00;;;;;;;;;;5049647;28;20374;-58
2022/09/04 13:54:15;;;;;;;0.22;0.22;;;;;;;;;;5049410;28;20099;-57
2022/09/04 13:57:07;;;;;;;0.00;0.00;;;;;;;;;;5048752;28;20049;-55
2022/09/04 13:59:33;;;;;;;0.00;0.00;;;;;;;;;;5048210;28;20025;-57
2022/09/04 14:02:03;;;;;;;0.00;0.00;;;;;;;;;;5049096;28;20492;-56
2022/09/04 14:04:28;;;;;;;0.00;0.00;;;;;;;;;;5048920;28;20059;-57
2022/09/04 14:07:04;;;;;;;0.00;0.00;;;;;;;;;;5049556;28;20478;-57
2022/09/04 14:09:31;;;;;;;0.00;0.00;;;;;;;;;;5048800;28;20027;-57
2022/09/04 14:12:07;;;;;;;0.00;0.00;;;;;;;;;;5049284;28;20035;-57
2022/09/04 14:14:42;;;;;;;0.00;0.00;;;;;;;;;;5048529;28;20797;-58
2022/09/04 14:17:08;;;;;;;0.00;0.00;;;;;;;;;;5049349;28;20025;-58
2022/09/04 14:19:55;;;;;;;0.45;0.45;;;;;;;;;;5048584;28;20017;-57
2022/09/04 14:22:26;;;;;;;0.00;0.00;;;;;;;;;;5048594;28;20021;-58
2022/09/04 14:25:10;;;;;;;0.00;0.00;;;;;;;;;;5049286;28;20025;-56
2022/09/04 14:27:45;;;;;;;0.00;0.00;;;;;;;;;;5048980;28;20401;-58
2022/09/04 14:30:15;;;;;;;0.00;0.00;;;;;;;;;;5047343;28;20122;-56
2022/09/04 14:32:41;;;;;;;0.00;0.00;;;;;;;;;;5049479;28;20458;-58
2022/09/04 14:35:26;;;;;;;0.00;0.00;;;;;;;;;;5049399;28;20028;-55
2022/09/04 14:38:13;;;;;;;0.00;0.00;;;;;;;;;;5048869;28;20370;-57
2022/09/04 14:40:44;;;;;;;0.00;0.00;;;;;;;;;;5048775;28;20036;-57
2022/09/04 14:43:12;;;;;;;0.00;0.00;;;;;;;;;;5049180;28;20386;-57
2022/09/04 14:45:40;;;;;;;0.00;0.00;;;;;;;;;;5048109;28;20021;-56
2022/09/04 14:48:08;;;;;;;0.00;0.00;;;;;;;;;;5048239;28;20131;-57
2022/09/04 14:50:43;;;;;;;0.00;0.00;;;;;;;;;;5048803;28;20335;-57
2022/09/04 14:53:08;;;;;;;0.00;0.00;;;;;;;;;;5049231;28;20033;-58
2022/09/04 14:55:59;;;;;;;0.00;0.00;;;;;;;;;;5047820;28;20374;-57
2022/09/04 14:58:28;;;;;;;0.00;0.00;;;;;;;;;;5049815;28;20501;-57
2022/09/04 15:01:00;;;;;;;0.00;0.00;;;;;;;;;;5054034;28;20029;-57
2022/09/04 15:03:49;;;;;;;0.00;0.00;;;;;;;;;;5051450;28;20036;-59
2022/09/04 15:06:16;;;;;;;0.00;0.00;;;;;;;;;;5042005;28;20401;-58
2022/09/04 15:08:43;;;;;;;0.00;0.00;;;;;;;;;;5052947;28;20024;-58
2022/09/04 15:11:09;;;;;;;0.00;0.00;;;;;;;;;;5052764;28;20041;-57
2022/09/04 15:13:46;;;;;;;0.00;0.00;;;;;;;;;;5052100;28;20032;-58
2022/09/04 15:16:20;;;;;;;0.00;0.00;;;;;;;;;;5052195;28;20051;-58
2022/09/04 15:18:50;;;;;;;0.00;0.00;;;;;;;;;;5052704;28;20021;-56
2022/09/04 15:21:24;;;;;;;0.00;0.00;;;;;;;;;;5051345;28;20025;-58
2022/09/04 15:23:49;;;;;;;0.00;0.00;;;;;;;;;;5052813;28;20112;-58
2022/09/04 15:26:20;;;;;;;0.00;0.00;;;;;;;;;;5049667;28;20108;-59
2022/09/04 15:28:56;;;;;;;0.00;0.00;;;;;;;;;;5052251;28;20354;-58
2022/09/04 15:31:32;;;;;;;0.00;0.00;;;;;;;;;;5051752;28;20055;-57
2022/09/04 15:34:02;;;;;;;0.00;0.00;;;;;;;;;;5052479;28;20099;-58
2022/09/04 15:36:29;;;;;;;0.00;0.00;;;;;;;;;;5051807;28;20040;-58